sensor_id;sensor_type;location;lat;lon;timestamp;P1;durP1;ratioP1;P2;durP2;ratioP2
23642;SDS011;11998;55.788;37.572;2023-08-07T00:00:25;24.67;;;20.85;;
23642;SDS011;11998;55.788;37.572;2023-08-07T00:01:25;9.95;;;8.95;;
23642;SDS011;11998;55.788;37.572;2023-08-07T00:02:26;8.70;;;6.45;;
23642;SDS011;11998;55.788;37.572;2023-08-07T00:03:26;9.65;;;5.72;;
23642;SDS011;11998;55.788;37.572;2023-08-07T00:04:27;8.73;;;5.15;;
23642;SDS011;11998;55.788;37.572;2023-08-07T00:05:28;8.65;;;5.30;;
23642;SDS011;11998;55.788;37.572;2023-08-07T00:06:30;5.88;;;5.20;;
23642;SDS011;11998;55.788;37.572;2023-08-07T00:07:30;6.63;;;5.30;;
23642;SDS011;11998;55.788;37.572;2023-08-07T00:08:31;6.35;;;5.05;;
23642;SDS011;11998;55.788;37.572;2023-08-07T00:09:31;7.57;;;4.82;;
23642;SDS011;11998;55.788;37.572;2023-08-07T00:10:32;8.68;;;5.50;;
23642;SDS011;11998;55.788;37.572;2023-08-07T00:11:32;8.15;;;5.32;;
23642;SDS011;11998;55.788;37.572;2023-08-07T00:12:33;6.60;;;5.22;;
23642;SDS011;11998;55.788;37.572;2023-08-07T00:13:34;9.63;;;5.13;;
23642;SDS011;11998;55.788;37.572;2023-08-07T00:14:34;12.27;;;5.28;;
23642;SDS011;11998;55.788;37.572;2023-08-07T00:15:37;5.75;;;5.13;;
23642;SDS011;11998;55.788;37.572;2023-08-07T00:16:39;8.32;;;4.70;;
23642;SDS011;11998;55.788;37.572;2023-08-07T00:17:41;8.45;;;4.90;;
23642;SDS011;11998;55.788;37.572;2023-08-07T00:18:41;6.63;;;5.32;;
23642;SDS011;11998;55.788;37.572;2023-08-07T00:19:42;8.30;;;4.93;;
23642;SDS011;11998;55.788;37.572;2023-08-07T00:20:42;7.07;;;4.95;;
23642;SDS011;11998;55.788;37.572;2023-08-07T00:21:43;11.93;;;5.35;;
23642;SDS011;11998;55.788;37.572;2023-08-07T00:22:43;11.40;;;5.20;;
23642;SDS011;11998;55.788;37.572;2023-08-07T00:23:44;6.55;;;4.63;;
23642;SDS011;11998;55.788;37.572;2023-08-07T00:24:44;9.55;;;5.15;;
23642;SDS011;11998;55.788;37.572;2023-08-07T00:25:45;6.30;;;4.72;;
23642;SDS011;11998;55.788;37.572;2023-08-07T00:26:45;6.30;;;4.53;;
23642;SDS011;11998;55.788;37.572;2023-08-07T00:27:46;8.57;;;5.13;;
23642;SDS011;11998;55.788;37.572;2023-08-07T00:28:46;6.75;;;5.43;;
23642;SDS011;11998;55.788;37.572;2023-08-07T00:29:47;6.10;;;4.68;;
23642;SDS011;11998;55.788;37.572;2023-08-07T00:30:47;8.45;;;4.72;;
23642;SDS011;11998;55.788;37.572;2023-08-07T00:31:48;6.88;;;4.57;;
23642;SDS011;11998;55.788;37.572;2023-08-07T00:32:48;6.47;;;4.82;;
23642;SDS011;11998;55.788;37.572;2023-08-07T00:33:49;4.82;;;4.43;;
23642;SDS011;11998;55.788;37.572;2023-08-07T00:34:51;8.50;;;4.72;;
23642;SDS011;11998;55.788;37.572;2023-08-07T00:35:52;12.88;;;4.88;;
23642;SDS011;11998;55.788;37.572;2023-08-07T00:36:52;6.75;;;4.57;;
23642;SDS011;11998;55.788;37.572;2023-08-07T00:37:53;6.55;;;4.88;;
23642;SDS011;11998;55.788;37.572;2023-08-07T00:38:53;6.25;;;5.20;;
23642;SDS011;11998;55.788;37.572;2023-08-07T00:39:54;7.18;;;4.57;;
23642;SDS011;11998;55.788;37.572;2023-08-07T00:40:54;5.40;;;4.90;;
23642;SDS011;11998;55.788;37.572;2023-08-07T00:41:55;5.50;;;4.63;;
23642;SDS011;11998;55.788;37.572;2023-08-07T00:42:56;7.10;;;4.90;;
23642;SDS011;11998;55.788;37.572;2023-08-07T00:43:56;7.53;;;4.90;;
23642;SDS011;11998;55.788;37.572;2023-08-07T00:44:57;5.30;;;4.68;;
23642;SDS011;11998;55.788;37.572;2023-08-07T00:45:58;6.53;;;5.10;;
23642;SDS011;11998;55.788;37.572;2023-08-07T00:46:58;6.47;;;4.70;;
23642;SDS011;11998;55.788;37.572;2023-08-07T00:47:59;6.95;;;5.30;;
23642;SDS011;11998;55.788;37.572;2023-08-07T00:48:59;6.97;;;4.75;;
23642;SDS011;11998;55.788;37.572;2023-08-07T00:50:00;5.95;;;4.57;;
23642;SDS011;11998;55.788;37.572;2023-08-07T00:51:02;6.70;;;5.10;;
23642;SDS011;11998;55.788;37.572;2023-08-07T00:52:04;7.88;;;5.32;;
23642;SDS011;11998;55.788;37.572;2023-08-07T00:53:05;7.65;;;5.28;;
23642;SDS011;11998;55.788;37.572;2023-08-07T00:54:07;5.90;;;4.88;;
23642;SDS011;11998;55.788;37.572;2023-08-07T00:55:10;7.53;;;5.05;;
23642;SDS011;11998;55.788;37.572;2023-08-07T00:56:11;8.35;;;4.78;;
23642;SDS011;11998;55.788;37.572;2023-08-07T00:57:12;5.15;;;4.68;;
23642;SDS011;11998;55.788;37.572;2023-08-07T00:58:15;8.45;;;5.70;;
23642;SDS011;11998;55.788;37.572;2023-08-07T00:59:15;19.85;;;17.73;;
23642;SDS011;11998;55.788;37.572;2023-08-07T01:00:16;14.63;;;13.20;;
23642;SDS011;11998;55.788;37.572;2023-08-07T01:01:17;10.05;;;7.78;;
23642;SDS011;11998;55.788;37.572;2023-08-07T01:02:18;9.43;;;7.57;;
23642;SDS011;11998;55.788;37.572;2023-08-07T01:03:19;7.03;;;6.32;;
23642;SDS011;11998;55.788;37.572;2023-08-07T01:04:19;15.48;;;6.18;;
23642;SDS011;11998;55.788;37.572;2023-08-07T01:05:20;6.60;;;5.03;;
23642;SDS011;11998;55.788;37.572;2023-08-07T01:06:20;8.43;;;5.28;;
23642;SDS011;11998;55.788;37.572;2023-08-07T01:07:21;5.38;;;4.75;;
23642;SDS011;11998;55.788;37.572;2023-08-07T01:08:22;5.20;;;4.72;;
23642;SDS011;11998;55.788;37.572;2023-08-07T01:09:27;6.07;;;5.18;;
23642;SDS011;11998;55.788;37.572;2023-08-07T01:10:33;6.07;;;5.30;;
23642;SDS011;11998;55.788;37.572;2023-08-07T01:11:54;9.18;;;5.63;;
23642;SDS011;11998;55.788;37.572;2023-08-07T01:12:59;5.45;;;4.88;;
23642;SDS011;11998;55.788;37.572;2023-08-07T01:14:11;5.57;;;4.93;;
23642;SDS011;11998;55.788;37.572;2023-08-07T01:15:22;6.18;;;5.20;;
23642;SDS011;11998;55.788;37.572;2023-08-07T01:16:37;7.40;;;5.07;;
23642;SDS011;11998;55.788;37.572;2023-08-07T01:17:45;6.75;;;4.95;;
23642;SDS011;11998;55.788;37.572;2023-08-07T01:18:47;12.00;;;5.07;;
23642;SDS011;11998;55.788;37.572;2023-08-07T01:19:52;8.57;;;5.50;;
23642;SDS011;11998;55.788;37.572;2023-08-07T01:20:53;8.75;;;5.57;;
23642;SDS011;11998;55.788;37.572;2023-08-07T01:22:09;8.95;;;5.35;;
23642;SDS011;11998;55.788;37.572;2023-08-07T01:23:14;12.82;;;5.30;;
23642;SDS011;11998;55.788;37.572;2023-08-07T01:24:15;7.97;;;5.13;;
23642;SDS011;11998;55.788;37.572;2023-08-07T01:25:15;6.47;;;5.03;;
23642;SDS011;11998;55.788;37.572;2023-08-07T01:26:17;7.43;;;5.07;;
23642;SDS011;11998;55.788;37.572;2023-08-07T01:27:24;6.82;;;5.15;;
23642;SDS011;11998;55.788;37.572;2023-08-07T01:28:33;6.13;;;5.15;;
23642;SDS011;11998;55.788;37.572;2023-08-07T01:29:59;6.40;;;5.30;;
23642;SDS011;11998;55.788;37.572;2023-08-07T01:31:21;9.63;;;5.57;;
23642;SDS011;11998;55.788;37.572;2023-08-07T01:32:26;6.45;;;5.15;;
23642;SDS011;11998;55.788;37.572;2023-08-07T01:34:15;6.65;;;4.90;;
23642;SDS011;11998;55.788;37.572;2023-08-07T01:35:05;7.32;;;4.95;;
23642;SDS011;11998;55.788;37.572;2023-08-07T01:36:06;7.28;;;5.25;;
23642;SDS011;11998;55.788;37.572;2023-08-07T01:37:09;7.50;;;5.20;;
23642;SDS011;11998;55.788;37.572;2023-08-07T01:38:12;7.53;;;5.60;;
23642;SDS011;11998;55.788;37.572;2023-08-07T01:39:14;6.07;;;4.70;;
23642;SDS011;11998;55.788;37.572;2023-08-07T01:40:16;8.10;;;5.35;;
23642;SDS011;11998;55.788;37.572;2023-08-07T01:41:17;8.43;;;5.65;;
23642;SDS011;11998;55.788;37.572;2023-08-07T01:42:18;10.00;;;6.05;;
23642;SDS011;11998;55.788;37.572;2023-08-07T01:43:19;11.85;;;5.47;;
23642;SDS011;11998;55.788;37.572;2023-08-07T01:44:20;9.10;;;5.55;;
23642;SDS011;11998;55.788;37.572;2023-08-07T01:45:24;7.95;;;5.63;;
23642;SDS011;11998;55.788;37.572;2023-08-07T01:46:26;6.90;;;5.75;;
23642;SDS011;11998;55.788;37.572;2023-08-07T01:47:26;10.82;;;7.60;;
23642;SDS011;11998;55.788;37.572;2023-08-07T01:48:27;13.20;;;6.07;;
23642;SDS011;11998;55.788;37.572;2023-08-07T01:49:27;9.80;;;5.68;;
23642;SDS011;11998;55.788;37.572;2023-08-07T01:50:28;6.70;;;5.38;;
23642;SDS011;11998;55.788;37.572;2023-08-07T01:51:29;9.73;;;5.40;;
23642;SDS011;11998;55.788;37.572;2023-08-07T01:52:30;8.07;;;5.63;;
23642;SDS011;11998;55.788;37.572;2023-08-07T01:53:30;8.57;;;5.15;;
23642;SDS011;11998;55.788;37.572;2023-08-07T01:54:31;7.03;;;5.18;;
23642;SDS011;11998;55.788;37.572;2023-08-07T01:55:31;7.05;;;5.38;;
23642;SDS011;11998;55.788;37.572;2023-08-07T01:56:32;6.80;;;5.30;;
23642;SDS011;11998;55.788;37.572;2023-08-07T01:57:32;7.97;;;5.15;;
23642;SDS011;11998;55.788;37.572;2023-08-07T01:58:33;9.48;;;5.22;;
23642;SDS011;11998;55.788;37.572;2023-08-07T01:59:33;7.85;;;5.35;;
23642;SDS011;11998;55.788;37.572;2023-08-07T02:00:34;5.80;;;5.15;;
23642;SDS011;11998;55.788;37.572;2023-08-07T02:01:34;9.07;;;5.35;;
23642;SDS011;11998;55.788;37.572;2023-08-07T02:02:35;8.43;;;5.03;;
23642;SDS011;11998;55.788;37.572;2023-08-07T02:03:36;6.30;;;5.30;;
23642;SDS011;11998;55.788;37.572;2023-08-07T02:04:36;9.32;;;5.28;;
23642;SDS011;11998;55.788;37.572;2023-08-07T02:05:37;6.82;;;5.40;;
23642;SDS011;11998;55.788;37.572;2023-08-07T02:06:37;6.07;;;5.13;;
23642;SDS011;11998;55.788;37.572;2023-08-07T02:07:38;9.15;;;5.75;;
23642;SDS011;11998;55.788;37.572;2023-08-07T02:08:38;8.70;;;5.22;;
23642;SDS011;11998;55.788;37.572;2023-08-07T02:09:39;9.43;;;5.47;;
23642;SDS011;11998;55.788;37.572;2023-08-07T02:10:39;8.18;;;5.35;;
23642;SDS011;11998;55.788;37.572;2023-08-07T02:11:40;6.15;;;5.55;;
23642;SDS011;11998;55.788;37.572;2023-08-07T02:12:40;12.73;;;5.43;;
23642;SDS011;11998;55.788;37.572;2023-08-07T02:13:41;9.90;;;5.50;;
23642;SDS011;11998;55.788;37.572;2023-08-07T02:14:41;10.07;;;5.60;;
23642;SDS011;11998;55.788;37.572;2023-08-07T02:15:42;13.10;;;5.70;;
23642;SDS011;11998;55.788;37.572;2023-08-07T02:16:43;7.43;;;5.70;;
23642;SDS011;11998;55.788;37.572;2023-08-07T02:17:43;6.85;;;6.07;;
23642;SDS011;11998;55.788;37.572;2023-08-07T02:18:43;7.90;;;5.72;;
23642;SDS011;11998;55.788;37.572;2023-08-07T02:19:44;11.13;;;5.65;;
23642;SDS011;11998;55.788;37.572;2023-08-07T02:20:44;8.40;;;5.82;;
23642;SDS011;11998;55.788;37.572;2023-08-07T02:21:46;8.85;;;6.00;;
23642;SDS011;11998;55.788;37.572;2023-08-07T02:22:46;7.80;;;6.03;;
23642;SDS011;11998;55.788;37.572;2023-08-07T02:23:47;9.02;;;6.15;;
23642;SDS011;11998;55.788;37.572;2023-08-07T02:24:47;8.18;;;6.68;;
23642;SDS011;11998;55.788;37.572;2023-08-07T02:25:48;7.80;;;6.00;;
23642;SDS011;11998;55.788;37.572;2023-08-07T02:26:49;9.63;;;6.13;;
23642;SDS011;11998;55.788;37.572;2023-08-07T02:27:49;7.53;;;6.10;;
23642;SDS011;11998;55.788;37.572;2023-08-07T02:28:50;8.77;;;5.82;;
23642;SDS011;11998;55.788;37.572;2023-08-07T02:29:50;8.02;;;6.15;;
23642;SDS011;11998;55.788;37.572;2023-08-07T02:30:51;9.77;;;6.30;;
23642;SDS011;11998;55.788;37.572;2023-08-07T02:31:54;8.50;;;6.13;;
23642;SDS011;11998;55.788;37.572;2023-08-07T02:32:54;10.27;;;6.38;;
23642;SDS011;11998;55.788;37.572;2023-08-07T02:33:55;10.52;;;6.03;;
23642;SDS011;11998;55.788;37.572;2023-08-07T02:34:55;8.45;;;6.40;;
23642;SDS011;11998;55.788;37.572;2023-08-07T02:35:56;10.68;;;6.07;;
23642;SDS011;11998;55.788;37.572;2023-08-07T02:36:57;9.50;;;5.70;;
23642;SDS011;11998;55.788;37.572;2023-08-07T02:37:58;10.93;;;6.72;;
23642;SDS011;11998;55.788;37.572;2023-08-07T02:38:58;13.98;;;6.63;;
23642;SDS011;11998;55.788;37.572;2023-08-07T02:39:59;7.30;;;6.15;;
23642;SDS011;11998;55.788;37.572;2023-08-07T02:40:59;9.65;;;6.32;;
23642;SDS011;11998;55.788;37.572;2023-08-07T02:41:59;11.65;;;7.00;;
23642;SDS011;11998;55.788;37.572;2023-08-07T02:43:00;9.10;;;6.35;;
23642;SDS011;11998;55.788;37.572;2023-08-07T02:44:01;8.00;;;6.38;;
23642;SDS011;11998;55.788;37.572;2023-08-07T02:45:01;8.85;;;6.80;;
23642;SDS011;11998;55.788;37.572;2023-08-07T02:46:02;11.52;;;6.45;;
23642;SDS011;11998;55.788;37.572;2023-08-07T02:47:03;8.27;;;6.05;;
23642;SDS011;11998;55.788;37.572;2023-08-07T02:48:04;10.07;;;6.45;;
23642;SDS011;11998;55.788;37.572;2023-08-07T02:49:04;8.45;;;6.50;;
23642;SDS011;11998;55.788;37.572;2023-08-07T02:50:05;8.02;;;6.03;;
23642;SDS011;11998;55.788;37.572;2023-08-07T02:51:06;7.53;;;6.32;;
23642;SDS011;11998;55.788;37.572;2023-08-07T02:52:06;12.30;;;6.45;;
23642;SDS011;11998;55.788;37.572;2023-08-07T02:53:07;6.78;;;5.88;;
23642;SDS011;11998;55.788;37.572;2023-08-07T02:54:08;9.82;;;5.97;;
23642;SDS011;11998;55.788;37.572;2023-08-07T02:55:08;10.52;;;5.95;;
23642;SDS011;11998;55.788;37.572;2023-08-07T02:56:09;9.02;;;6.00;;
23642;SDS011;11998;55.788;37.572;2023-08-07T02:57:10;6.47;;;5.82;;
23642;SDS011;11998;55.788;37.572;2023-08-07T02:58:11;8.38;;;6.50;;
23642;SDS011;11998;55.788;37.572;2023-08-07T02:59:11;6.75;;;5.43;;
23642;SDS011;11998;55.788;37.572;2023-08-07T03:00:12;8.13;;;6.25;;
23642;SDS011;11998;55.788;37.572;2023-08-07T03:01:13;10.20;;;6.15;;
23642;SDS011;11998;55.788;37.572;2023-08-07T03:02:13;9.18;;;5.40;;
23642;SDS011;11998;55.788;37.572;2023-08-07T03:03:14;7.60;;;5.68;;
23642;SDS011;11998;55.788;37.572;2023-08-07T03:04:14;8.75;;;5.95;;
23642;SDS011;11998;55.788;37.572;2023-08-07T03:05:15;7.85;;;6.07;;
23642;SDS011;11998;55.788;37.572;2023-08-07T03:06:15;9.13;;;5.80;;
23642;SDS011;11998;55.788;37.572;2023-08-07T03:07:16;8.18;;;6.00;;
23642;SDS011;11998;55.788;37.572;2023-08-07T03:08:16;10.18;;;5.88;;
23642;SDS011;11998;55.788;37.572;2023-08-07T03:09:17;11.30;;;6.03;;
23642;SDS011;11998;55.788;37.572;2023-08-07T03:10:18;7.22;;;5.95;;
23642;SDS011;11998;55.788;37.572;2023-08-07T03:11:19;9.38;;;5.70;;
23642;SDS011;11998;55.788;37.572;2023-08-07T03:12:19;11.38;;;6.53;;
23642;SDS011;11998;55.788;37.572;2023-08-07T03:13:20;8.10;;;6.40;;
23642;SDS011;11998;55.788;37.572;2023-08-07T03:14:20;7.90;;;5.85;;
23642;SDS011;11998;55.788;37.572;2023-08-07T03:15:21;10.30;;;6.15;;
23642;SDS011;11998;55.788;37.572;2023-08-07T03:16:22;7.70;;;5.72;;
23642;SDS011;11998;55.788;37.572;2023-08-07T03:17:22;8.57;;;6.40;;
23642;SDS011;11998;55.788;37.572;2023-08-07T03:18:22;6.88;;;6.18;;
23642;SDS011;11998;55.788;37.572;2023-08-07T03:19:23;10.85;;;6.30;;
23642;SDS011;11998;55.788;37.572;2023-08-07T03:20:24;16.40;;;6.30;;
23642;SDS011;11998;55.788;37.572;2023-08-07T03:21:24;12.95;;;6.68;;
23642;SDS011;11998;55.788;37.572;2023-08-07T03:22:25;10.38;;;6.40;;
23642;SDS011;11998;55.788;37.572;2023-08-07T03:23:26;10.63;;;6.47;;
23642;SDS011;11998;55.788;37.572;2023-08-07T03:24:27;7.57;;;6.18;;
23642;SDS011;11998;55.788;37.572;2023-08-07T03:25:27;9.35;;;6.78;;
23642;SDS011;11998;55.788;37.572;2023-08-07T03:26:28;7.78;;;6.03;;
23642;SDS011;11998;55.788;37.572;2023-08-07T03:27:28;7.68;;;5.65;;
23642;SDS011;11998;55.788;37.572;2023-08-07T03:28:29;9.02;;;5.97;;
23642;SDS011;11998;55.788;37.572;2023-08-07T03:29:29;10.20;;;6.35;;
23642;SDS011;11998;55.788;37.572;2023-08-07T03:30:30;11.45;;;6.43;;
23642;SDS011;11998;55.788;37.572;2023-08-07T03:31:30;7.82;;;6.15;;
23642;SDS011;11998;55.788;37.572;2023-08-07T03:32:31;6.05;;;5.40;;
23642;SDS011;11998;55.788;37.572;2023-08-07T03:33:31;7.93;;;5.50;;
23642;SDS011;11998;55.788;37.572;2023-08-07T03:34:32;11.00;;;7.20;;
23642;SDS011;11998;55.788;37.572;2023-08-07T03:35:33;9.18;;;6.40;;
23642;SDS011;11998;55.788;37.572;2023-08-07T03:36:33;12.73;;;5.80;;
23642;SDS011;11998;55.788;37.572;2023-08-07T03:37:34;6.03;;;5.20;;
23642;SDS011;11998;55.788;37.572;2023-08-07T03:38:34;11.75;;;6.53;;
23642;SDS011;11998;55.788;37.572;2023-08-07T03:39:35;7.68;;;5.43;;
23642;SDS011;11998;55.788;37.572;2023-08-07T03:40:35;7.07;;;5.60;;
23642;SDS011;11998;55.788;37.572;2023-08-07T03:41:36;6.57;;;5.45;;
23642;SDS011;11998;55.788;37.572;2023-08-07T03:42:36;6.57;;;5.35;;
23642;SDS011;11998;55.788;37.572;2023-08-07T03:43:37;7.15;;;5.30;;
23642;SDS011;11998;55.788;37.572;2023-08-07T03:44:38;8.85;;;5.97;;
23642;SDS011;11998;55.788;37.572;2023-08-07T03:45:39;5.07;;;4.55;;
23642;SDS011;11998;55.788;37.572;2023-08-07T03:46:39;10.75;;;5.53;;
23642;SDS011;11998;55.788;37.572;2023-08-07T03:47:40;7.25;;;5.00;;
23642;SDS011;11998;55.788;37.572;2023-08-07T03:48:40;7.40;;;5.18;;
23642;SDS011;11998;55.788;37.572;2023-08-07T03:49:41;6.97;;;5.45;;
23642;SDS011;11998;55.788;37.572;2023-08-07T03:50:41;5.47;;;4.93;;
23642;SDS011;11998;55.788;37.572;2023-08-07T03:51:42;5.60;;;4.90;;
23642;SDS011;11998;55.788;37.572;2023-08-07T03:52:42;6.00;;;4.70;;
23642;SDS011;11998;55.788;37.572;2023-08-07T03:53:43;6.15;;;4.70;;
23642;SDS011;11998;55.788;37.572;2023-08-07T03:54:43;9.07;;;4.80;;
23642;SDS011;11998;55.788;37.572;2023-08-07T03:55:48;5.80;;;4.63;;
23642;SDS011;11998;55.788;37.572;2023-08-07T03:56:49;6.10;;;4.75;;
23642;SDS011;11998;55.788;37.572;2023-08-07T03:57:51;5.53;;;4.57;;
23642;SDS011;11998;55.788;37.572;2023-08-07T03:58:51;7.65;;;4.97;;
23642;SDS011;11998;55.788;37.572;2023-08-07T03:59:52;5.55;;;4.85;;
23642;SDS011;11998;55.788;37.572;2023-08-07T04:00:54;9.40;;;4.72;;
23642;SDS011;11998;55.788;37.572;2023-08-07T04:01:55;8.38;;;5.05;;
23642;SDS011;11998;55.788;37.572;2023-08-07T04:02:56;5.20;;;4.10;;
23642;SDS011;11998;55.788;37.572;2023-08-07T04:03:56;9.13;;;4.65;;
23642;SDS011;11998;55.788;37.572;2023-08-07T04:04:57;5.15;;;4.25;;
23642;SDS011;11998;55.788;37.572;2023-08-07T04:05:57;6.00;;;4.00;;
23642;SDS011;11998;55.788;37.572;2023-08-07T04:07:00;11.32;;;4.88;;
23642;SDS011;11998;55.788;37.572;2023-08-07T04:08:00;6.25;;;4.03;;
23642;SDS011;11998;55.788;37.572;2023-08-07T04:09:01;4.85;;;4.40;;
23642;SDS011;11998;55.788;37.572;2023-08-07T04:10:03;4.85;;;3.92;;
23642;SDS011;11998;55.788;37.572;2023-08-07T04:11:04;7.53;;;4.70;;
23642;SDS011;11998;55.788;37.572;2023-08-07T04:12:05;5.30;;;4.28;;
23642;SDS011;11998;55.788;37.572;2023-08-07T04:13:06;5.88;;;4.07;;
23642;SDS011;11998;55.788;37.572;2023-08-07T04:14:06;7.15;;;4.28;;
23642;SDS011;11998;55.788;37.572;2023-08-07T04:15:07;5.95;;;3.97;;
23642;SDS011;11998;55.788;37.572;2023-08-07T04:16:09;4.88;;;4.10;;
23642;SDS011;11998;55.788;37.572;2023-08-07T04:17:09;4.80;;;4.10;;
23642;SDS011;11998;55.788;37.572;2023-08-07T04:18:10;6.45;;;4.00;;
23642;SDS011;11998;55.788;37.572;2023-08-07T04:19:12;5.63;;;3.65;;
23642;SDS011;11998;55.788;37.572;2023-08-07T04:20:12;9.20;;;4.20;;
23642;SDS011;11998;55.788;37.572;2023-08-07T04:21:13;8.25;;;3.75;;
23642;SDS011;11998;55.788;37.572;2023-08-07T04:22:13;4.90;;;4.03;;
23642;SDS011;11998;55.788;37.572;2023-08-07T04:23:13;10.05;;;4.20;;
23642;SDS011;11998;55.788;37.572;2023-08-07T04:24:14;7.00;;;3.88;;
23642;SDS011;11998;55.788;37.572;2023-08-07T04:25:14;5.05;;;4.07;;
23642;SDS011;11998;55.788;37.572;2023-08-07T04:26:15;11.27;;;4.20;;
23642;SDS011;11998;55.788;37.572;2023-08-07T04:27:16;7.65;;;4.00;;
23642;SDS011;11998;55.788;37.572;2023-08-07T04:28:16;7.38;;;3.50;;
23642;SDS011;11998;55.788;37.572;2023-08-07T04:29:17;4.78;;;4.22;;
23642;SDS011;11998;55.788;37.572;2023-08-07T04:30:17;4.47;;;3.63;;
23642;SDS011;11998;55.788;37.572;2023-08-07T04:31:18;5.72;;;4.10;;
23642;SDS011;11998;55.788;37.572;2023-08-07T04:32:18;5.78;;;3.72;;
23642;SDS011;11998;55.788;37.572;2023-08-07T04:33:19;6.85;;;3.80;;
23642;SDS011;11998;55.788;37.572;2023-08-07T04:34:20;3.67;;;3.38;;
23642;SDS011;11998;55.788;37.572;2023-08-07T04:35:21;6.45;;;4.00;;
23642;SDS011;11998;55.788;37.572;2023-08-07T04:36:21;4.63;;;3.40;;
23642;SDS011;11998;55.788;37.572;2023-08-07T04:37:22;6.63;;;4.22;;
23642;SDS011;11998;55.788;37.572;2023-08-07T04:38:22;8.07;;;4.15;;
23642;SDS011;11998;55.788;37.572;2023-08-07T04:39:23;10.15;;;3.72;;
23642;SDS011;11998;55.788;37.572;2023-08-07T04:40:23;9.63;;;3.83;;
23642;SDS011;11998;55.788;37.572;2023-08-07T04:41:24;7.40;;;3.97;;
23642;SDS011;11998;55.788;37.572;2023-08-07T04:42:24;5.57;;;3.90;;
23642;SDS011;11998;55.788;37.572;2023-08-07T04:43:25;5.07;;;3.90;;
23642;SDS011;11998;55.788;37.572;2023-08-07T04:44:26;5.38;;;3.90;;
23642;SDS011;11998;55.788;37.572;2023-08-07T04:45:26;8.07;;;3.63;;
23642;SDS011;11998;55.788;37.572;2023-08-07T04:46:27;6.20;;;3.72;;
23642;SDS011;11998;55.788;37.572;2023-08-07T04:47:28;7.88;;;3.83;;
23642;SDS011;11998;55.788;37.572;2023-08-07T04:48:28;8.85;;;4.10;;
23642;SDS011;11998;55.788;37.572;2023-08-07T04:49:29;6.85;;;3.30;;
23642;SDS011;11998;55.788;37.572;2023-08-07T04:50:29;5.32;;;4.13;;
23642;SDS011;11998;55.788;37.572;2023-08-07T04:51:30;6.47;;;3.60;;
23642;SDS011;11998;55.788;37.572;2023-08-07T04:52:31;8.40;;;3.78;;
23642;SDS011;11998;55.788;37.572;2023-08-07T04:53:31;6.63;;;3.85;;
23642;SDS011;11998;55.788;37.572;2023-08-07T04:54:32;5.47;;;3.70;;
23642;SDS011;11998;55.788;37.572;2023-08-07T04:55:32;7.30;;;3.67;;
23642;SDS011;11998;55.788;37.572;2023-08-07T04:56:33;6.32;;;3.60;;
23642;SDS011;11998;55.788;37.572;2023-08-07T04:57:33;5.97;;;3.67;;
23642;SDS011;11998;55.788;37.572;2023-08-07T04:58:34;6.00;;;3.75;;
23642;SDS011;11998;55.788;37.572;2023-08-07T04:59:34;6.60;;;3.38;;
23642;SDS011;11998;55.788;37.572;2023-08-07T05:00:35;4.68;;;3.20;;
23642;SDS011;11998;55.788;37.572;2023-08-07T05:01:36;7.18;;;3.55;;
23642;SDS011;11998;55.788;37.572;2023-08-07T05:02:37;6.07;;;3.72;;
23642;SDS011;11998;55.788;37.572;2023-08-07T05:03:38;5.25;;;3.55;;
23642;SDS011;11998;55.788;37.572;2023-08-07T05:04:38;6.60;;;3.65;;
23642;SDS011;11998;55.788;37.572;2023-08-07T05:05:39;4.95;;;3.40;;
23642;SDS011;11998;55.788;37.572;2023-08-07T05:06:39;9.00;;;3.38;;
23642;SDS011;11998;55.788;37.572;2023-08-07T05:07:40;5.47;;;3.40;;
23642;SDS011;11998;55.788;37.572;2023-08-07T05:08:41;5.53;;;3.95;;
23642;SDS011;11998;55.788;37.572;2023-08-07T05:09:42;5.13;;;3.40;;
23642;SDS011;11998;55.788;37.572;2023-08-07T05:10:42;8.25;;;4.05;;
23642;SDS011;11998;55.788;37.572;2023-08-07T05:11:43;7.45;;;3.60;;
23642;SDS011;11998;55.788;37.572;2023-08-07T05:12:43;6.03;;;3.75;;
23642;SDS011;11998;55.788;37.572;2023-08-07T05:13:44;5.22;;;3.88;;
23642;SDS011;11998;55.788;37.572;2023-08-07T05:14:44;6.47;;;3.50;;
23642;SDS011;11998;55.788;37.572;2023-08-07T05:15:46;7.80;;;3.40;;
23642;SDS011;11998;55.788;37.572;2023-08-07T05:16:48;5.10;;;3.50;;
23642;SDS011;11998;55.788;37.572;2023-08-07T05:17:48;7.28;;;3.47;;
23642;SDS011;11998;55.788;37.572;2023-08-07T05:18:50;6.15;;;3.80;;
23642;SDS011;11998;55.788;37.572;2023-08-07T05:19:50;9.63;;;3.88;;
23642;SDS011;11998;55.788;37.572;2023-08-07T05:20:51;5.18;;;3.33;;
23642;SDS011;11998;55.788;37.572;2023-08-07T05:21:51;6.78;;;3.15;;
23642;SDS011;11998;55.788;37.572;2023-08-07T05:22:52;6.50;;;3.35;;
23642;SDS011;11998;55.788;37.572;2023-08-07T05:23:52;5.78;;;3.28;;
23642;SDS011;11998;55.788;37.572;2023-08-07T05:24:53;8.07;;;3.40;;
23642;SDS011;11998;55.788;37.572;2023-08-07T05:25:53;5.70;;;3.40;;
23642;SDS011;11998;55.788;37.572;2023-08-07T05:26:54;7.82;;;3.55;;
23642;SDS011;11998;55.788;37.572;2023-08-07T05:27:55;7.13;;;3.08;;
23642;SDS011;11998;55.788;37.572;2023-08-07T05:28:55;10.15;;;3.63;;
23642;SDS011;11998;55.788;37.572;2023-08-07T05:29:59;9.27;;;3.50;;
23642;SDS011;11998;55.788;37.572;2023-08-07T05:30:59;7.88;;;3.58;;
23642;SDS011;11998;55.788;37.572;2023-08-07T05:32:00;7.93;;;3.63;;
23642;SDS011;11998;55.788;37.572;2023-08-07T05:33:01;7.72;;;3.65;;
23642;SDS011;11998;55.788;37.572;2023-08-07T05:34:01;6.68;;;3.67;;
23642;SDS011;11998;55.788;37.572;2023-08-07T05:35:02;5.30;;;3.45;;
23642;SDS011;11998;55.788;37.572;2023-08-07T05:36:03;6.35;;;3.22;;
23642;SDS011;11998;55.788;37.572;2023-08-07T05:37:06;5.15;;;3.15;;
23642;SDS011;11998;55.788;37.572;2023-08-07T05:38:08;4.68;;;3.38;;
23642;SDS011;11998;55.788;37.572;2023-08-07T05:39:08;5.18;;;3.53;;
23642;SDS011;11998;55.788;37.572;2023-08-07T05:40:09;9.00;;;3.28;;
23642;SDS011;11998;55.788;37.572;2023-08-07T05:41:12;5.53;;;3.30;;
23642;SDS011;11998;55.788;37.572;2023-08-07T05:42:12;9.57;;;3.35;;
23642;SDS011;11998;55.788;37.572;2023-08-07T05:43:13;11.35;;;3.80;;
23642;SDS011;11998;55.788;37.572;2023-08-07T05:44:13;9.35;;;3.80;;
23642;SDS011;11998;55.788;37.572;2023-08-07T05:45:14;8.90;;;3.40;;
23642;SDS011;11998;55.788;37.572;2023-08-07T05:46:16;5.03;;;2.97;;
23642;SDS011;11998;55.788;37.572;2023-08-07T05:47:16;3.70;;;3.38;;
23642;SDS011;11998;55.788;37.572;2023-08-07T05:48:17;13.80;;;3.60;;
23642;SDS011;11998;55.788;37.572;2023-08-07T05:49:17;6.85;;;3.45;;
23642;SDS011;11998;55.788;37.572;2023-08-07T05:50:18;10.38;;;3.78;;
23642;SDS011;11998;55.788;37.572;2023-08-07T05:51:18;6.60;;;3.55;;
23642;SDS011;11998;55.788;37.572;2023-08-07T05:52:19;8.98;;;3.33;;
23642;SDS011;11998;55.788;37.572;2023-08-07T05:53:20;13.18;;;3.88;;
23642;SDS011;11998;55.788;37.572;2023-08-07T05:54:21;9.88;;;3.60;;
23642;SDS011;11998;55.788;37.572;2023-08-07T05:55:21;5.50;;;2.90;;
23642;SDS011;11998;55.788;37.572;2023-08-07T05:56:22;9.15;;;4.05;;
23642;SDS011;11998;55.788;37.572;2023-08-07T05:57:22;18.85;;;4.40;;
23642;SDS011;11998;55.788;37.572;2023-08-07T05:58:23;14.10;;;4.20;;
23642;SDS011;11998;55.788;37.572;2023-08-07T05:59:23;10.00;;;3.83;;
23642;SDS011;11998;55.788;37.572;2023-08-07T06:00:24;8.02;;;3.40;;
23642;SDS011;11998;55.788;37.572;2023-08-07T06:01:25;7.20;;;3.22;;
23642;SDS011;11998;55.788;37.572;2023-08-07T06:02:31;10.18;;;2.92;;
23642;SDS011;11998;55.788;37.572;2023-08-07T06:03:32;9.70;;;3.17;;